sensor_id;sensor_type;location;lat;lon;timestamp;temperature;humidity
44729;DHT22;30457;53.590;9.922;2023-04-06T00:02:08;7.50;44.30
44729;DHT22;30457;53.590;9.922;2023-04-06T00:06:33;7.40;44.30
44729;DHT22;30457;53.590;9.922;2023-04-06T00:10:59;7.40;44.50
44729;DHT22;30457;53.590;9.922;2023-04-06T00:15:25;7.40;44.50
44729;DHT22;30457;53.590;9.922;2023-04-06T00:19:50;7.30;44.70
44729;DHT22;30457;53.590;9.922;2023-04-06T00:24:16;7.20;44.80
44729;DHT22;30457;53.590;9.922;2023-04-06T00:28:42;7.20;44.90
44729;DHT22;30457;53.590;9.922;2023-04-06T00:33:07;7.10;44.90
44729;DHT22;30457;53.590;9.922;2023-04-06T00:37:33;7.10;44.90
44729;DHT22;30457;53.590;9.922;2023-04-06T00:41:58;7.00;45.10
44729;DHT22;30457;53.590;9.922;2023-04-06T00:46:25;7.00;45.20
44729;DHT22;30457;53.590;9.922;2023-04-06T00:50:51;7.00;45.30
44729;DHT22;30457;53.590;9.922;2023-04-06T00:55:17;7.00;45.30
44729;DHT22;30457;53.590;9.922;2023-04-06T00:59:43;6.90;45.30
44729;DHT22;30457;53.590;9.922;2023-04-06T01:04:11;6.90;45.60
44729;DHT22;30457;53.590;9.922;2023-04-06T01:08:40;6.80;45.60
44729;DHT22;30457;53.590;9.922;2023-04-06T01:13:18;6.70;45.50
44729;DHT22;30457;53.590;9.922;2023-04-06T01:17:52;6.70;45.70
44729;DHT22;30457;53.590;9.922;2023-04-06T01:22:18;6.60;45.80
44729;DHT22;30457;53.590;9.922;2023-04-06T01:26:51;6.60;45.90
44729;DHT22;30457;53.590;9.922;2023-04-06T01:31:17;6.50;45.90
44729;DHT22;30457;53.590;9.922;2023-04-06T01:35:47;6.50;46.20
44729;DHT22;30457;53.590;9.922;2023-04-06T01:40:18;6.50;46.40
44729;DHT22;30457;53.590;9.922;2023-04-06T01:44:48;6.40;46.50
44729;DHT22;30457;53.590;9.922;2023-04-06T01:49:15;6.40;46.60
44729;DHT22;30457;53.590;9.922;2023-04-06T01:53:41;6.30;46.60
44729;DHT22;30457;53.590;9.922;2023-04-06T01:58:06;6.30;46.70
44729;DHT22;30457;53.590;9.922;2023-04-06T02:02:36;6.20;46.80
44729;DHT22;30457;53.590;9.922;2023-04-06T02:07:07;6.20;47.00
44729;DHT22;30457;53.590;9.922;2023-04-06T02:11:33;6.20;47.10
44729;DHT22;30457;53.590;9.922;2023-04-06T02:15:58;6.20;47.20
44729;DHT22;30457;53.590;9.922;2023-04-06T02:20:26;6.10;47.20
44729;DHT22;30457;53.590;9.922;2023-04-06T02:24:51;6.10;47.30
44729;DHT22;30457;53.590;9.922;2023-04-06T02:29:17;6.10;47.40
44729;DHT22;30457;53.590;9.922;2023-04-06T02:33:42;6.10;47.60
44729;DHT22;30457;53.590;9.922;2023-04-06T02:38:09;6.10;47.60
44729;DHT22;30457;53.590;9.922;2023-04-06T02:42:35;6.00;47.50
44729;DHT22;30457;53.590;9.922;2023-04-06T02:47:02;6.00;47.70
44729;DHT22;30457;53.590;9.922;2023-04-06T02:51:29;6.00;47.80
44729;DHT22;30457;53.590;9.922;2023-04-06T02:56:04;6.00;47.90
44729;DHT22;30457;53.590;9.922;2023-04-06T03:00:42;5.90;47.80
44729;DHT22;30457;53.590;9.922;2023-04-06T03:05:08;5.90;48.00
44729;DHT22;30457;53.590;9.922;2023-04-06T03:09:37;5.90;48.20
44729;DHT22;30457;53.590;9.922;2023-04-06T03:14:03;5.90;48.20
44729;DHT22;30457;53.590;9.922;2023-04-06T03:18:29;5.80;48.20
44729;DHT22;30457;53.590;9.922;2023-04-06T03:22:56;5.80;48.30
44729;DHT22;30457;53.590;9.922;2023-04-06T03:27:26;5.80;48.50
44729;DHT22;30457;53.590;9.922;2023-04-06T03:31:52;5.80;48.80
44729;DHT22;30457;53.590;9.922;2023-04-06T03:36:29;5.80;49.00
44729;DHT22;30457;53.590;9.922;2023-04-06T03:40:56;5.70;49.30
44729;DHT22;30457;53.590;9.922;2023-04-06T03:45:25;5.70;49.40
44729;DHT22;30457;53.590;9.922;2023-04-06T03:49:50;5.80;49.60
44729;DHT22;30457;53.590;9.922;2023-04-06T03:54:16;5.70;49.40
44729;DHT22;30457;53.590;9.922;2023-04-06T03:58:42;5.70;49.40
44729;DHT22;30457;53.590;9.922;2023-04-06T04:03:09;5.70;49.30
44729;DHT22;30457;53.590;9.922;2023-04-06T04:07:35;5.70;49.20
44729;DHT22;30457;53.590;9.922;2023-04-06T04:12:01;5.70;49.10
44729;DHT22;30457;53.590;9.922;2023-04-06T04:16:26;5.70;49.10
44729;DHT22;30457;53.590;9.922;2023-04-06T04:20:52;5.60;49.10
44729;DHT22;30457;53.590;9.922;2023-04-06T04:25:20;5.60;49.20
44729;DHT22;30457;53.590;9.922;2023-04-06T04:29:48;5.60;49.30
44729;DHT22;30457;53.590;9.922;2023-04-06T04:34:14;5.50;49.20
44729;DHT22;30457;53.590;9.922;2023-04-06T04:38:40;5.50;49.30
44729;DHT22;30457;53.590;9.922;2023-04-06T04:43:06;5.50;49.40
44729;DHT22;30457;53.590;9.922;2023-04-06T04:47:33;5.40;49.40
44729;DHT22;30457;53.590;9.922;2023-04-06T04:51:59;5.40;49.30
44729;DHT22;30457;53.590;9.922;2023-04-06T04:56:33;5.40;49.60
44729;DHT22;30457;53.590;9.922;2023-04-06T05:01:08;5.30;49.70
44729;DHT22;30457;53.590;9.922;2023-04-06T05:05:34;5.30;49.40
44729;DHT22;30457;53.590;9.922;2023-04-06T05:10:01;5.30;49.60
44729;DHT22;30457;53.590;9.922;2023-04-06T05:14:31;5.30;49.90
44729;DHT22;30457;53.590;9.922;2023-04-06T05:18:59;5.30;50.00
44729;DHT22;30457;53.590;9.922;2023-04-06T05:23:31;5.30;50.00
44729;DHT22;30457;53.590;9.922;2023-04-06T05:28:00;5.30;50.10
44729;DHT22;30457;53.590;9.922;2023-04-06T05:32:30;5.30;50.40
44729;DHT22;30457;53.590;9.922;2023-04-06T05:36:55;5.40;50.70
44729;DHT22;30457;53.590;9.922;2023-04-06T05:41:24;5.40;50.80
44729;DHT22;30457;53.590;9.922;2023-04-06T05:45:50;5.50;50.90
44729;DHT22;30457;53.590;9.922;2023-04-06T05:50:16;5.50;50.80
44729;DHT22;30457;53.590;9.922;2023-04-06T05:54:41;5.60;51.20
44729;DHT22;30457;53.590;9.922;2023-04-06T05:59:07;5.60;51.30
44729;DHT22;30457;53.590;9.922;2023-04-06T06:03:32;5.80;51.50
44729;DHT22;30457;53.590;9.922;2023-04-06T06:07:58;5.90;51.50
44729;DHT22;30457;53.590;9.922;2023-04-06T06:12:24;6.00;51.70
44729;DHT22;30457;53.590;9.922;2023-04-06T06:16:50;6.20;51.50
44729;DHT22;30457;53.590;9.922;2023-04-06T06:21:16;6.30;51.40
44729;DHT22;30457;53.590;9.922;2023-04-06T06:25:42;6.50;51.70
44729;DHT22;30457;53.590;9.922;2023-04-06T06:30:09;6.70;51.50
44729;DHT22;30457;53.590;9.922;2023-04-06T06:34:38;6.90;51.40
44729;DHT22;30457;53.590;9.922;2023-04-06T06:39:06;7.10;51.30
44729;DHT22;30457;53.590;9.922;2023-04-06T06:43:31;7.30;50.80
44729;DHT22;30457;53.590;9.922;2023-04-06T06:48:00;7.50;50.50
44729;DHT22;30457;53.590;9.922;2023-04-06T06:52:26;7.70;50.20
44729;DHT22;30457;53.590;9.922;2023-04-06T06:56:52;7.90;49.80
44729;DHT22;30457;53.590;9.922;2023-04-06T07:01:17;8.10;49.70
44729;DHT22;30457;53.590;9.922;2023-04-06T07:05:48;8.30;49.20
44729;DHT22;30457;53.590;9.922;2023-04-06T07:10:18;8.50;48.90
44729;DHT22;30457;53.590;9.922;2023-04-06T07:14:43;8.70;48.30
44729;DHT22;30457;53.590;9.922;2023-04-06T07:19:09;8.90;48.00
44729;DHT22;30457;53.590;9.922;2023-04-06T07:23:35;9.20;47.70
44729;DHT22;30457;53.590;9.922;2023-04-06T07:28:02;9.40;47.00
44729;DHT22;30457;53.590;9.922;2023-04-06T07:32:28;9.60;46.80
44729;DHT22;30457;53.590;9.922;2023-04-06T07:36:54;9.70;46.40
44729;DHT22;30457;53.590;9.922;2023-04-06T07:41:20;10.00;46.10
44729;DHT22;30457;53.590;9.922;2023-04-06T07:45:46;10.20;46.00
44729;DHT22;30457;53.590;9.922;2023-04-06T07:50:15;10.30;45.30
44729;DHT22;30457;53.590;9.922;2023-04-06T07:54:41;10.50;45.00
44729;DHT22;30457;53.590;9.922;2023-04-06T07:59:07;10.70;44.60
44729;DHT22;30457;53.590;9.922;2023-04-06T08:03:36;10.90;44.10
44729;DHT22;30457;53.590;9.922;2023-04-06T08:08:01;11.10;43.60
44729;DHT22;30457;53.590;9.922;2023-04-06T08:12:27;11.30;43.30
44729;DHT22;30457;53.590;9.922;2023-04-06T08:16:52;11.50;43.00
44729;DHT22;30457;53.590;9.922;2023-04-06T08:21:18;11.70;43.10
44729;DHT22;30457;53.590;9.922;2023-04-06T08:25:43;11.90;43.00
44729;DHT22;30457;53.590;9.922;2023-04-06T08:30:09;12.10;42.60
44729;DHT22;30457;53.590;9.922;2023-04-06T08:34:35;12.30;42.30
44729;DHT22;30457;53.590;9.922;2023-04-06T08:39:01;12.50;41.80
44729;DHT22;30457;53.590;9.922;2023-04-06T08:43:27;12.70;41.00
44729;DHT22;30457;53.590;9.922;2023-04-06T08:47:54;12.90;40.90
44729;DHT22;30457;53.590;9.922;2023-04-06T08:52:22;13.10;40.10
44729;DHT22;30457;53.590;9.922;2023-04-06T08:56:49;13.30;40.10
44729;DHT22;30457;53.590;9.922;2023-04-06T09:01:17;13.50;40.30
44729;DHT22;30457;53.590;9.922;2023-04-06T09:05:44;13.70;39.40
44729;DHT22;30457;53.590;9.922;2023-04-06T09:10:10;13.90;39.10
44729;DHT22;30457;53.590;9.922;2023-04-06T09:14:39;14.10;38.70
44729;DHT22;30457;53.590;9.922;2023-04-06T09:19:05;14.30;38.00
44729;DHT22;30457;53.590;9.922;2023-04-06T09:23:31;14.40;37.80
44729;DHT22;30457;53.590;9.922;2023-04-06T09:28:04;14.60;37.60
44729;DHT22;30457;53.590;9.922;2023-04-06T09:32:29;14.80;36.90
44729;DHT22;30457;53.590;9.922;2023-04-06T09:36:55;15.00;37.20
44729;DHT22;30457;53.590;9.922;2023-04-06T09:41:32;15.20;37.60
44729;DHT22;30457;53.590;9.922;2023-04-06T09:46:00;15.30;36.70
44729;DHT22;30457;53.590;9.922;2023-04-06T09:50:26;15.50;36.60
44729;DHT22;30457;53.590;9.922;2023-04-06T09:54:56;15.60;36.80
44729;DHT22;30457;53.590;9.922;2023-04-06T10:08:39;16.00;34.60
44729;DHT22;30457;53.590;9.922;2023-04-06T10:13:10;16.10;34.60
44729;DHT22;30457;53.590;9.922;2023-04-06T10:17:36;16.20;33.80
44729;DHT22;30457;53.590;9.922;2023-04-06T10:22:03;16.30;34.00
44729;DHT22;30457;53.590;9.922;2023-04-06T10:26:30;16.40;33.70
44729;DHT22;30457;53.590;9.922;2023-04-06T10:30:58;16.40;32.70
44729;DHT22;30457;53.590;9.922;2023-04-06T10:35:24;16.40;32.70
44729;DHT22;30457;53.590;9.922;2023-04-06T10:39:53;16.40;32.70
44729;DHT22;30457;53.590;9.922;2023-04-06T10:44:21;16.50;32.60
44729;DHT22;30457;53.590;9.922;2023-04-06T10:48:47;16.50;32.40
44729;DHT22;30457;53.590;9.922;2023-04-06T10:53:25;16.50;32.00
44729;DHT22;30457;53.590;9.922;2023-04-06T10:57:51;16.50;31.70
44729;DHT22;30457;53.590;9.922;2023-04-06T11:02:20;16.50;32.60
44729;DHT22;30457;53.590;9.922;2023-04-06T11:06:49;16.60;32.30
44729;DHT22;30457;53.590;9.922;2023-04-06T11:11:17;16.70;32.60
44729;DHT22;30457;53.590;9.922;2023-04-06T11:15:43;16.80;32.30
44729;DHT22;30457;53.590;9.922;2023-04-06T11:20:10;16.90;31.90
44729;DHT22;30457;53.590;9.922;2023-04-06T11:24:36;17.00;31.80
44729;DHT22;30457;53.590;9.922;2023-04-06T11:29:02;17.10;32.00
44729;DHT22;30457;53.590;9.922;2023-04-06T11:33:28;17.20;31.20
44729;DHT22;30457;53.590;9.922;2023-04-06T11:37:54;17.30;31.90
44729;DHT22;30457;53.590;9.922;2023-04-06T11:42:26;17.40;31.40
44729;DHT22;30457;53.590;9.922;2023-04-06T11:46:53;17.50;31.30
44729;DHT22;30457;53.590;9.922;2023-04-06T11:51:22;17.70;31.30
44729;DHT22;30457;53.590;9.922;2023-04-06T11:55:49;17.80;30.60
44729;DHT22;30457;53.590;9.922;2023-04-06T12:00:15;17.90;31.00
44729;DHT22;30457;53.590;9.922;2023-04-06T12:04:40;18.00;30.30
44729;DHT22;30457;53.590;9.922;2023-04-06T12:09:06;18.20;30.60
44729;DHT22;30457;53.590;9.922;2023-04-06T12:13:32;18.30;30.80
44729;DHT22;30457;53.590;9.922;2023-04-06T12:17:57;18.50;30.40
44729;DHT22;30457;53.590;9.922;2023-04-06T12:22:23;18.60;30.30
44729;DHT22;30457;53.590;9.922;2023-04-06T12:26:48;18.70;30.20
44729;DHT22;30457;53.590;9.922;2023-04-06T12:31:18;18.90;29.30
44729;DHT22;30457;53.590;9.922;2023-04-06T12:35:44;19.00;29.40
44729;DHT22;30457;53.590;9.922;2023-04-06T12:40:10;19.10;29.40
44729;DHT22;30457;53.590;9.922;2023-04-06T12:44:37;19.20;29.80
44729;DHT22;30457;53.590;9.922;2023-04-06T12:49:03;19.40;29.70
44729;DHT22;30457;53.590;9.922;2023-04-06T12:53:29;19.50;29.10
44729;DHT22;30457;53.590;9.922;2023-04-06T12:57:54;19.60;29.60
44729;DHT22;30457;53.590;9.922;2023-04-06T13:02:20;19.70;29.00
44729;DHT22;30457;53.590;9.922;2023-04-06T13:06:46;19.80;29.00
44729;DHT22;30457;53.590;9.922;2023-04-06T13:11:12;19.90;28.70
44729;DHT22;30457;53.590;9.922;2023-04-06T13:15:38;20.00;28.90
44729;DHT22;30457;53.590;9.922;2023-04-06T13:20:03;20.20;28.80
44729;DHT22;30457;53.590;9.922;2023-04-06T13:24:29;20.30;28.30
44729;DHT22;30457;53.590;9.922;2023-04-06T13:28:55;20.40;28.10
44729;DHT22;30457;53.590;9.922;2023-04-06T13:33:22;20.50;27.80
44729;DHT22;30457;53.590;9.922;2023-04-06T13:37:47;20.60;27.20
44729;DHT22;30457;53.590;9.922;2023-04-06T13:42:14;20.50;27.70
44729;DHT22;30457;53.590;9.922;2023-04-06T13:46:39;20.60;27.70
44729;DHT22;30457;53.590;9.922;2023-04-06T13:51:09;20.80;27.30
44729;DHT22;30457;53.590;9.922;2023-04-06T13:55:35;20.90;26.60
44729;DHT22;30457;53.590;9.922;2023-04-06T14:00:01;20.90;27.80
44729;DHT22;30457;53.590;9.922;2023-04-06T14:04:27;21.10;27.70
44729;DHT22;30457;53.590;9.922;2023-04-06T14:08:52;21.20;27.10
44729;DHT22;30457;53.590;9.922;2023-04-06T14:13:18;21.20;26.80
44729;DHT22;30457;53.590;9.922;2023-04-06T14:17:44;21.30;27.10
44729;DHT22;30457;53.590;9.922;2023-04-06T14:22:10;21.40;27.10
44729;DHT22;30457;53.590;9.922;2023-04-06T14:26:36;21.50;26.90
44729;DHT22;30457;53.590;9.922;2023-04-06T14:31:08;21.60;26.60
44729;DHT22;30457;53.590;9.922;2023-04-06T14:35:38;21.70;26.40
44729;DHT22;30457;53.590;9.922;2023-04-06T14:40:04;21.80;26.20
44729;DHT22;30457;53.590;9.922;2023-04-06T14:44:33;21.80;26.10
44729;DHT22;30457;53.590;9.922;2023-04-06T14:48:58;21.80;25.20
44729;DHT22;30457;53.590;9.922;2023-04-06T14:53:24;21.80;25.90
44729;DHT22;30457;53.590;9.922;2023-04-06T14:57:50;21.80;26.10
44729;DHT22;30457;53.590;9.922;2023-04-06T15:02:15;21.80;25.60
44729;DHT22;30457;53.590;9.922;2023-04-06T15:06:42;21.80;25.60
44729;DHT22;30457;53.590;9.922;2023-04-06T15:11:07;21.80;25.60
44729;DHT22;30457;53.590;9.922;2023-04-06T15:15:33;21.80;25.90
44729;DHT22;30457;53.590;9.922;2023-04-06T15:19:58;21.80;25.40
44729;DHT22;30457;53.590;9.922;2023-04-06T15:24:24;21.70;25.50
44729;DHT22;30457;53.590;9.922;2023-04-06T15:28:50;21.70;25.70
44729;DHT22;30457;53.590;9.922;2023-04-06T15:33:16;21.70;25.30
44729;DHT22;30457;53.590;9.922;2023-04-06T15:37:42;21.60;25.20
44729;DHT22;30457;53.590;9.922;2023-04-06T15:42:08;21.60;25.50
44729;DHT22;30457;53.590;9.922;2023-04-06T15:46:33;21.50;25.90
44729;DHT22;30457;53.590;9.922;2023-04-06T15:50:59;21.50;25.20
44729;DHT22;30457;53.590;9.922;2023-04-06T15:55:25;21.40;25.50
44729;DHT22;30457;53.590;9.922;2023-04-06T15:59:51;21.30;25.10
44729;DHT22;30457;53.590;9.922;2023-04-06T16:04:19;21.20;24.70
44729;DHT22;30457;53.590;9.922;2023-04-06T16:08:45;21.00;24.90
44729;DHT22;30457;53.590;9.922;2023-04-06T16:13:10;21.00;25.20
44729;DHT22;30457;53.590;9.922;2023-04-06T16:17:36;20.90;25.50
44729;DHT22;30457;53.590;9.922;2023-04-06T16:22:01;20.90;25.30
44729;DHT22;30457;53.590;9.922;2023-04-06T16:26:27;20.90;25.40
44729;DHT22;30457;53.590;9.922;2023-04-06T16:30:53;20.90;25.20
44729;DHT22;30457;53.590;9.922;2023-04-06T16:35:18;20.90;25.00
44729;DHT22;30457;53.590;9.922;2023-04-06T16:39:44;20.80;24.20
44729;DHT22;30457;53.590;9.922;2023-04-06T16:44:10;20.60;24.70
44729;DHT22;30457;53.590;9.922;2023-04-06T16:48:37;20.50;25.00
44729;DHT22;30457;53.590;9.922;2023-04-06T16:53:02;20.30;24.90
44729;DHT22;30457;53.590;9.922;2023-04-06T16:57:28;20.00;25.30
44729;DHT22;30457;53.590;9.922;2023-04-06T17:01:54;19.90;25.40
44729;DHT22;30457;53.590;9.922;2023-04-06T17:06:20;19.70;25.60
44729;DHT22;30457;53.590;9.922;2023-04-06T17:10:45;19.50;25.50
44729;DHT22;30457;53.590;9.922;2023-04-06T17:15:14;19.30;25.50
44729;DHT22;30457;53.590;9.922;2023-04-06T17:19:40;19.20;25.20
44729;DHT22;30457;53.590;9.922;2023-04-06T17:24:05;19.00;25.70
44729;DHT22;30457;53.590;9.922;2023-04-06T17:28:32;18.80;26.00
44729;DHT22;30457;53.590;9.922;2023-04-06T17:32:58;18.70;26.20
44729;DHT22;30457;53.590;9.922;2023-04-06T17:37:23;18.60;26.50
44729;DHT22;30457;53.590;9.922;2023-04-06T17:41:49;18.40;26.50
44729;DHT22;30457;53.590;9.922;2023-04-06T17:46:14;18.30;26.50
44729;DHT22;30457;53.590;9.922;2023-04-06T17:50:40;18.10;26.80
44729;DHT22;30457;53.590;9.922;2023-04-06T17:55:06;17.90;26.90
44729;DHT22;30457;53.590;9.922;2023-04-06T17:59:32;17.80;26.90
44729;DHT22;30457;53.590;9.922;2023-04-06T18:03:58;17.60;26.90
44729;DHT22;30457;53.590;9.922;2023-04-06T18:08:23;17.60;27.10
44729;DHT22;30457;53.590;9.922;2023-04-06T18:12:49;17.30;27.20
44729;DHT22;30457;53.590;9.922;2023-04-06T18:17:15;17.20;27.40
44729;DHT22;30457;53.590;9.922;2023-04-06T18:21:40;17.10;27.40
44729;DHT22;30457;53.590;9.922;2023-04-06T18:26:10;16.90;27.60
44729;DHT22;30457;53.590;9.922;2023-04-06T18:30:38;16.80;27.70
44729;DHT22;30457;53.590;9.922;2023-04-06T18:35:04;16.70;27.90
44729;DHT22;30457;53.590;9.922;2023-04-06T18:39:31;16.50;28.00
44729;DHT22;30457;53.590;9.922;2023-04-06T18:43:56;16.40;28.40
44729;DHT22;30457;53.590;9.922;2023-04-06T18:48:22;16.30;28.50
44729;DHT22;30457;53.590;9.922;2023-04-06T18:52:47;16.20;28.70
44729;DHT22;30457;53.590;9.922;2023-04-06T18:57:13;16.10;28.70
44729;DHT22;30457;53.590;9.922;2023-04-06T19:01:39;16.00;28.90
44729;DHT22;30457;53.590;9.922;2023-04-06T19:06:07;15.90;28.80
44729;DHT22;30457;53.590;9.922;2023-04-06T19:10:35;15.70;29.00
44729;DHT22;30457;53.590;9.922;2023-04-06T19:15:05;15.70;29.10
44729;DHT22;30457;53.590;9.922;2023-04-06T19:19:31;15.50;29.40
44729;DHT22;30457;53.590;9.922;2023-04-06T19:23:57;15.40;29.30
44729;DHT22;30457;53.590;9.922;2023-04-06T19:28:22;15.40;29.60
44729;DHT22;30457;53.590;9.922;2023-04-06T19:32:48;15.30;29.60
44729;DHT22;30457;53.590;9.922;2023-04-06T19:37:13;15.20;29.60
44729;DHT22;30457;53.590;9.922;2023-04-06T19:41:39;15.10;29.80
44729;DHT22;30457;53.590;9.922;2023-04-06T19:46:04;15.00;29.80
44729;DHT22;30457;53.590;9.922;2023-04-06T19:50:31;14.90;30.00
44729;DHT22;30457;53.590;9.922;2023-04-06T19:54:57;14.80;30.20
44729;DHT22;30457;53.590;9.922;2023-04-06T19:59:22;14.70;30.00
44729;DHT22;30457;53.590;9.922;2023-04-06T20:03:48;14.70;30.10
44729;DHT22;30457;53.590;9.922;2023-04-06T20:08:14;14.60;30.20
44729;DHT22;30457;53.590;9.922;2023-04-06T20:12:41;14.50;30.50
44729;DHT22;30457;53.590;9.922;2023-04-06T20:17:06;14.40;30.30
44729;DHT22;30457;53.590;9.922;2023-04-06T20:21:32;14.40;30.50
44729;DHT22;30457;53.590;9.922;2023-04-06T20:25:57;14.30;30.70
44729;DHT22;30457;53.590;9.922;2023-04-06T20:30:24;14.20;30.80
44729;DHT22;30457;53.590;9.922;2023-04-06T20:34:49;14.10;30.80
44729;DHT22;30457;53.590;9.922;2023-04-06T20:39:15;14.00;30.80
44729;DHT22;30457;53.590;9.922;2023-04-06T20:43:41;14.00;31.10
44729;DHT22;30457;53.590;9.922;2023-04-06T20:48:06;13.90;31.10
44729;DHT22;30457;53.590;9.922;2023-04-06T20:52:32;13.90;31.20
44729;DHT22;30457;53.590;9.922;2023-04-06T20:56:58;13.80;31.30
44729;DHT22;30457;53.590;9.922;2023-04-06T21:01:25;13.70;31.30
44729;DHT22;30457;53.590;9.922;2023-04-06T21:05:53;13.60;31.50
44729;DHT22;30457;53.590;9.922;2023-04-06T21:10:18;13.60;31.60
44729;DHT22;30457;53.590;9.922;2023-04-06T21:14:44;13.50;31.60
44729;DHT22;30457;53.590;9.922;2023-04-06T21:19:10;13.50;31.80
44729;DHT22;30457;53.590;9.922;2023-04-06T21:23:35;13.40;31.80
44729;DHT22;30457;53.590;9.922;2023-04-06T21:28:01;13.40;31.80
44729;DHT22;30457;53.590;9.922;2023-04-06T21:32:26;13.30;31.90
44729;DHT22;30457;53.590;9.922;2023-04-06T21:36:52;13.30;32.00
44729;DHT22;30457;53.590;9.922;2023-04-06T21:41:18;13.20;32.00
44729;DHT22;30457;53.590;9.922;2023-04-06T21:45:48;13.20;32.10
44729;DHT22;30457;53.590;9.922;2023-04-06T21:50:14;13.10;32.10
44729;DHT22;30457;53.590;9.922;2023-04-06T21:54:40;13.10;32.20
44729;DHT22;30457;53.590;9.922;2023-04-06T21:59:06;13.00;32.30
44729;DHT22;30457;53.590;9.922;2023-04-06T22:03:31;13.00;32.40
44729;DHT22;30457;53.590;9.922;2023-04-06T22:07:57;12.90;32.50
44729;DHT22;30457;53.590;9.922;2023-04-06T22:12:23;12.90;32.70
44729;DHT22;30457;53.590;9.922;2023-04-06T22:16:49;12.80;32.50
44729;DHT22;30457;53.590;9.922;2023-04-06T22:21:14;12.70;32.60
44729;DHT22;30457;53.590;9.922;2023-04-06T22:25:40;12.60;32.70
44729;DHT22;30457;53.590;9.922;2023-04-06T22:30:06;12.60;32.90
44729;DHT22;30457;53.590;9.922;2023-04-06T22:34:32;12.50;33.00
44729;DHT22;30457;53.590;9.922;2023-04-06T22:38:58;12.50;33.20
44729;DHT22;30457;53.590;9.922;2023-04-06T22:43:23;12.40;33.20
44729;DHT22;30457;53.590;9.922;2023-04-06T22:47:49;12.30;33.40
44729;DHT22;30457;53.590;9.922;2023-04-06T22:52:14;12.20;33.40
44729;DHT22;30457;53.590;9.922;2023-04-06T22:56:40;12.20;33.50
44729;DHT22;30457;53.590;9.922;2023-04-06T23:01:05;12.10;33.70
44729;DHT22;30457;53.590;9.922;2023-04-06T23:05:31;12.10;33.80
44729;DHT22;30457;53.590;9.922;2023-04-06T23:09:58;12.10;33.90
44729;DHT22;30457;53.590;9.922;2023-04-06T23:14:23;12.00;33.90
44729;DHT22;30457;53.590;9.922;2023-04-06T23:18:49;11.90;34.00
44729;DHT22;30457;53.590;9.922;2023-04-06T23:23:15;11.80;34.10
44729;DHT22;30457;53.590;9.922;2023-04-06T23:27:40;11.80;34.40
44729;DHT22;30457;53.590;9.922;2023-04-06T23:32:06;11.70;34.30
44729;DHT22;30457;53.590;9.922;2023-04-06T23:36:31;11.70;34.50
44729;DHT22;30457;53.590;9.922;2023-04-06T23:40:57;11.60;34.60
44729;DHT22;30457;53.590;9.922;2023-04-06T23:45:22;11.60;34.80
44729;DHT22;30457;53.590;9.922;2023-04-06T23:49:48;11.50;34.80
44729;DHT22;30457;53.590;9.922;2023-04-06T23:54:14;11.50;35.00
44729;DHT22;30457;53.590;9.922;2023-04-06T23:58:39;11.40;35.00
